Time;durP1;ratioP1;P1;durP2;ratioP2;P2;SDS_P1;SDS_P2;PMS_P1;PMS_P2;Temp;Humidity;BMP_temperature;BMP_pressure;BME280_temperature;BME280_humidity;BME280_pressure;Samples;Min_cycle;Max_cycle;Signal;HPM_P1;HPM_P2
2022/04/13 00:01:45;;;;;;;0.20;0.20;;;;;;;14.14;46.38;100702.84;5051888;28;20032;-66
2022/04/13 00:04:11;;;;;;;0.10;0.10;;;;;;;14.06;47.23;100707.41;5050732;28;20498;-66
2022/04/13 00:06:38;;;;;;;0.10;0.10;;;;;;;14.05;46.67;100694.25;5031626;28;20037;-65
2022/04/13 00:09:08;;;;;;;0.00;0.00;;;;;;;14.05;46.92;100699.69;5040072;28;20099;-66
2022/04/13 00:11:34;;;;;;;0.10;0.10;;;;;;;14.08;46.57;100702.41;5034120;28;20097;-66
2022/04/13 00:14:00;;;;;;;0.03;0.03;;;;;;;14.04;46.77;100693.47;5071135;28;20040;-65
2022/04/13 00:16:26;;;;;;;0.05;0.05;;;;;;;13.95;47.15;100690.34;5072020;28;20078;-65
2022/04/13 00:18:51;;;;;;;0.17;0.17;;;;;;;13.66;48.25;100693.19;5054652;28;20037;-65
2022/04/13 00:21:17;;;;;;;0.10;0.10;;;;;;;13.76;47.95;100687.88;5045404;28;20557;-66
2022/04/13 00:23:42;;;;;;;0.82;0.28;;;;;;;13.77;47.65;100686.69;5051636;28;20045;-66
2022/04/13 00:26:07;;;;;;;0.30;0.30;;;;;;;13.87;47.83;100680.59;5052151;28;20115;-66
2022/04/13 00:28:33;;;;;;;0.20;0.20;;;;;;;13.82;47.43;100683.63;5056101;28;20027;-66
2022/04/13 00:30:58;;;;;;;0.10;0.10;;;;;;;13.81;47.19;100676.69;5072152;28;20061;-66
2022/04/13 00:33:24;;;;;;;0.10;0.10;;;;;;;13.75;47.51;100666.56;5051732;28;20037;-66
2022/04/13 00:35:49;;;;;;;0.93;0.20;;;;;;;13.71;47.58;100676.59;5044143;28;20261;-66
2022/04/13 00:38:14;;;;;;;0.80;0.75;;;;;;;13.63;47.79;100664.19;5046178;28;20037;-65
2022/04/13 00:40:40;;;;;;;0.30;0.30;;;;;;;13.71;47.59;100663.06;5042605;28;20024;-66
2022/04/13 00:43:07;;;;;;;0.00;0.00;;;;;;;13.73;48.15;100661.53;5038201;28;20372;-65
2022/04/13 00:45:33;;;;;;;0.00;0.00;;;;;;;13.56;48.32;100659.47;5045219;28;20041;-65
2022/04/13 00:48:01;;;;;;;0.25;0.25;;;;;;;13.59;47.35;100664.91;5067674;28;20036;-65
2022/04/13 00:50:27;;;;;;;1.75;0.43;;;;;;;13.65;47.17;100657.22;5057927;28;20041;-65
2022/04/13 00:52:53;;;;;;;0.30;0.30;;;;;;;13.57;47.82;100661.00;5048720;28;20035;-65
2022/04/13 00:55:24;;;;;;;0.00;0.00;;;;;;;13.57;47.65;100655.59;5049179;28;20369;-65
2022/04/13 00:57:51;;;;;;;0.00;0.00;;;;;;;13.53;47.60;100654.78;5049471;28;20083;-65
2022/04/13 01:00:19;;;;;;;0.05;0.05;;;;;;;13.35;48.15;100646.56;5041442;28;20374;-65
2022/04/13 01:02:45;;;;;;;0.15;0.15;;;;;;;13.50;48.41;100655.56;5043248;28;20435;-65
2022/04/13 01:05:11;;;;;;;1.20;0.73;;;;;;;13.37;48.73;100654.28;5048865;28;20060;-65
2022/04/13 01:07:39;;;;;;;0.10;0.10;;;;;;;13.36;48.94;100639.19;5030284;28;20033;-65
2022/04/13 01:10:06;;;;;;;0.10;0.10;;;;;;;13.34;48.85;100649.59;5030495;28;20528;-65
2022/04/13 01:12:35;;;;;;;0.10;0.10;;;;;;;13.36;48.06;100658.91;5067547;28;20032;-65
2022/04/13 01:15:03;;;;;;;0.10;0.10;;;;;;;13.36;48.97;100648.09;5069826;28;20032;-65
2022/04/13 01:17:28;;;;;;;0.10;0.10;;;;;;;13.34;48.70;100655.81;5060214;28;20064;-65
2022/04/13 01:19:54;;;;;;;0.00;0.00;;;;;;;13.38;48.61;100656.63;5050273;28;20436;-65
2022/04/13 01:22:24;;;;;;;0.10;0.10;;;;;;;13.41;48.63;100646.97;5050111;28;20036;-65
2022/04/13 01:24:49;;;;;;;0.03;0.03;;;;;;;13.34;48.70;100650.38;5048747;28;20033;-65
2022/04/13 01:27:16;;;;;;;0.25;0.25;;;;;;;13.23;48.98;100651.44;5032892;28;20280;-65
2022/04/13 01:29:42;;;;;;;0.10;0.10;;;;;;;13.11;49.32;100657.91;5041676;28;20045;-65
2022/04/13 01:32:10;;;;;;;0.10;0.10;;;;;;;13.15;49.72;100655.22;5044735;28;20039;-65
2022/04/13 01:34:36;;;;;;;0.05;0.05;;;;;;;13.23;49.53;100667.69;5051512;28;20033;-65
2022/04/13 01:37:02;;;;;;;0.10;0.10;;;;;;;13.18;49.26;100659.91;5031017;28;20103;-65
2022/04/13 01:39:28;;;;;;;0.00;0.00;;;;;;;13.24;49.37;100659.19;5050109;28;20047;-65
2022/04/13 01:41:53;;;;;;;0.13;0.13;;;;;;;13.25;49.01;100657.25;5049106;28;20070;-64
2022/04/13 01:44:18;;;;;;;0.22;0.15;;;;;;;13.12;49.77;100655.97;5049271;28;20029;-64
2022/04/13 01:46:44;;;;;;;0.47;0.47;;;;;;;13.16;49.12;100648.69;5032942;28;20037;-64
2022/04/13 01:49:09;;;;;;;0.10;0.10;;;;;;;13.26;49.15;100651.47;5030693;28;20425;-65
2022/04/13 01:51:35;;;;;;;0.10;0.10;;;;;;;13.13;49.85;100646.72;5032780;28;20048;-65
2022/04/13 01:54:00;;;;;;;0.28;0.28;;;;;;;13.21;49.85;100656.44;5045012;28;20056;-65
2022/04/13 01:56:25;;;;;;;0.10;0.10;;;;;;;12.98;50.96;100650.38;5049510;28;20036;-64
2022/04/13 01:58:51;;;;;;;0.10;0.10;;;;;;;12.99;50.29;100647.31;5048269;28;20037;-65
2022/04/13 02:01:17;;;;;;;0.10;0.10;;;;;;;12.94;50.51;100647.66;5027290;28;20408;-65
2022/04/13 02:03:43;;;;;;;1.20;1.10;;;;;;;12.86;51.13;100637.13;5044499;28;20171;-64
2022/04/13 02:06:08;;;;;;;0.05;0.05;;;;;;;13.00;49.97;100638.06;5049232;28;20517;-65
2022/04/13 02:08:34;;;;;;;0.00;0.00;;;;;;;12.85;51.43;100649.09;5048987;28;20186;-64
2022/04/13 02:11:00;;;;;;;0.30;0.30;;;;;;;13.03;50.69;100641.94;5041157;28;20048;-65
2022/04/13 02:13:26;;;;;;;0.10;0.10;;;;;;;12.83;50.79;100656.81;5029199;28;20112;-64
2022/04/13 02:15:51;;;;;;;0.00;0.00;;;;;;;12.78;51.05;100647.09;5036514;28;20033;-65
2022/04/13 02:18:17;;;;;;;0.25;0.20;;;;;;;12.91;50.54;100642.97;5028574;28;20048;-64
2022/04/13 02:20:42;;;;;;;0.25;0.15;;;;;;;13.01;50.81;100636.13;5048142;28;20124;-65
2022/04/13 02:23:08;;;;;;;0.10;0.10;;;;;;;12.69;51.40;100633.09;5048990;28;20045;-65
2022/04/13 02:25:35;;;;;;;0.15;0.15;;;;;;;12.64;51.69;100636.91;5045898;28;20025;-65
2022/04/13 02:28:05;;;;;;;0.38;0.38;;;;;;;12.68;51.86;100631.53;5048355;28;20663;-64
2022/04/13 02:30:31;;;;;;;0.10;0.10;;;;;;;12.64;51.59;100636.91;5042111;28;20064;-64
2022/04/13 02:32:57;;;;;;;0.35;0.35;;;;;;;12.60;51.24;100622.56;5033632;28;20021;-64
2022/04/13 02:35:22;;;;;;;0.10;0.10;;;;;;;12.73;51.79;100619.63;5057230;28;20036;-65
2022/04/13 02:37:47;;;;;;;0.10;0.10;;;;;;;12.66;51.65;100623.00;5068474;28;20107;-65
2022/04/13 02:40:13;;;;;;;0.98;0.43;;;;;;;12.56;51.82;100629.84;5048912;28;20045;-64
2022/04/13 02:42:39;;;;;;;0.15;0.15;;;;;;;12.63;52.00;100621.84;5050193;28;20048;-65
2022/04/13 02:45:05;;;;;;;0.52;0.52;;;;;;;12.53;51.69;100625.19;5050791;28;20030;-65
2022/04/13 02:47:36;;;;;;;0.20;0.20;;;;;;;12.45;52.52;100623.56;5047627;28;20065;-65
2022/04/13 02:50:08;;;;;;;0.10;0.10;;;;;;;12.54;52.31;100628.69;5031270;28;20040;-65
2022/04/13 02:52:37;;;;;;;0.25;0.25;;;;;;;12.56;52.23;100632.56;5032471;28;20041;-65
2022/04/13 02:55:03;;;;;;;0.20;0.20;;;;;;;12.71;51.82;100614.59;5039336;28;20033;-65
2022/04/13 02:57:28;;;;;;;0.22;0.22;;;;;;;12.48;51.85;100617.44;5056998;28;20037;-65
2022/04/13 02:59:54;;;;;;;0.10;0.10;;;;;;;12.51;52.23;100622.09;5048716;28;20051;-65
2022/04/13 03:02:20;;;;;;;0.22;0.22;;;;;;;12.62;51.63;100628.38;5058893;28;20036;-64
2022/04/13 03:04:46;;;;;;;0.10;0.10;;;;;;;12.72;51.87;100620.78;5069713;28;20036;-65
2022/04/13 03:07:13;;;;;;;0.50;0.50;;;;;;;12.47;52.25;100623.97;5068030;28;20087;-65
2022/04/13 03:09:39;;;;;;;0.10;0.10;;;;;;;12.51;52.72;100619.38;5055239;28;20124;-65
2022/04/13 03:12:09;;;;;;;0.13;0.13;;;;;;;12.64;52.42;100625.31;5014784;28;20124;-65
2022/04/13 03:14:35;;;;;;;0.28;0.28;;;;;;;12.52;52.88;100622.88;5048819;28;20070;-65
2022/04/13 03:17:01;;;;;;;0.10;0.10;;;;;;;12.47;52.68;100621.25;5049199;28;20128;-65
2022/04/13 03:19:27;;;;;;;0.63;0.63;;;;;;;12.45;52.64;100622.75;5029688;28;20201;-65
2022/04/13 03:21:54;;;;;;;0.10;0.10;;;;;;;12.35;52.69;100621.50;5048760;28;20123;-65
2022/04/13 03:24:23;;;;;;;0.20;0.20;;;;;;;12.38;52.67;100628.88;5047496;28;20064;-65
2022/04/13 03:26:49;;;;;;;0.10;0.10;;;;;;;12.36;53.27;100630.38;5047788;28;20041;-66
2022/04/13 03:29:14;;;;;;;0.10;0.10;;;;;;;12.44;52.92;100624.72;5029053;28;20041;-66
2022/04/13 03:31:40;;;;;;;0.30;0.30;;;;;;;12.48;52.23;100628.22;5053029;28;20066;-65
2022/04/13 03:34:05;;;;;;;0.20;0.20;;;;;;;12.32;53.19;100619.53;5068234;28;20528;-65
2022/04/13 03:36:32;;;;;;;0.10;0.10;;;;;;;12.52;52.21;100622.88;5047088;28;20047;-64
2022/04/13 03:38:57;;;;;;;0.08;0.08;;;;;;;12.48;52.96;100625.53;5048320;28;20082;-65
2022/04/13 03:41:23;;;;;;;0.10;0.10;;;;;;;12.32;53.26;100624.94;5047746;28;20036;-65
2022/04/13 03:43:48;;;;;;;0.10;0.10;;;;;;;12.25;53.46;100630.22;5053236;28;20037;-65
2022/04/13 03:46:14;;;;;;;0.10;0.10;;;;;;;12.40;53.03;100632.00;5028229;28;20103;-65
2022/04/13 03:48:39;;;;;;;0.10;0.10;;;;;;;12.37;53.35;100640.81;5038719;28;20041;-65
2022/04/13 03:51:05;;;;;;;1.45;0.65;;;;;;;12.23;53.60;100635.22;5052262;28;20245;-65
2022/04/13 03:53:30;;;;;;;0.20;0.20;;;;;;;12.09;53.94;100634.25;5047834;28;20033;-65
2022/04/13 03:55:56;;;;;;;0.20;0.20;;;;;;;12.16;53.57;100635.13;5050213;28;20082;-65
2022/04/13 03:58:21;;;;;;;0.10;0.10;;;;;;;12.11;53.69;100627.38;5043851;28;20048;-65
2022/04/13 04:00:47;;;;;;;0.10;0.10;;;;;;;12.21;54.11;100634.03;5050918;28;20454;-66
2022/04/13 04:03:12;;;;;;;0.00;0.00;;;;;;;12.14;53.62;100634.72;5050944;28;20040;-65
2022/04/13 04:05:38;;;;;;;0.25;0.20;;;;;;;12.24;53.69;100639.50;5051653;28;20037;-65
2022/04/13 04:08:04;;;;;;;0.10;0.10;;;;;;;12.07;54.44;100634.63;5050340;28;20041;-65
2022/04/13 04:10:30;;;;;;;0.08;0.08;;;;;;;12.11;53.87;100635.47;5051493;28;20091;-65
2022/04/13 04:12:55;;;;;;;1.88;0.35;;;;;;;12.17;53.78;100631.31;5057526;28;20488;-65
2022/04/13 04:15:21;;;;;;;0.10;0.10;;;;;;;12.05;54.59;100641.53;5048137;28;20438;-66
2022/04/13 04:17:46;;;;;;;0.10;0.10;;;;;;;12.23;53.52;100651.41;5044903;28;20091;-65
2022/04/13 04:20:12;;;;;;;0.10;0.10;;;;;;;12.20;53.86;100643.28;5051046;28;20117;-64
2022/04/13 04:22:37;;;;;;;0.10;0.10;;;;;;;12.11;54.54;100646.25;5033099;28;20037;-65
2022/04/13 04:25:04;;;;;;;0.20;0.17;;;;;;;12.10;54.86;100644.69;5048252;28;20063;-64
2022/04/13 04:27:30;;;;;;;0.10;0.10;;;;;;;12.19;54.00;100653.31;5051109;28;20045;-65
2022/04/13 04:29:56;;;;;;;0.10;0.10;;;;;;;12.08;54.66;100640.81;5051974;28;20041;-64
2022/04/13 04:32:21;;;;;;;0.20;0.20;;;;;;;11.97;55.28;100654.16;5051288;28;20048;-65
2022/04/13 04:34:46;;;;;;;0.10;0.10;;;;;;;12.04;55.18;100651.53;5033508;28;20033;-65
2022/04/13 04:37:12;;;;;;;0.10;0.10;;;;;;;12.01;54.77;100657.69;5065161;28;20434;-64
2022/04/13 04:39:37;;;;;;;0.68;0.68;;;;;;;12.07;55.09;100645.44;5071128;28;20040;-65
2022/04/13 04:42:04;;;;;;;0.10;0.10;;;;;;;11.96;55.04;100657.22;5069577;28;20040;-65
2022/04/13 04:44:30;;;;;;;1.25;0.35;;;;;;;11.97;55.47;100654.16;5049694;28;20403;-65
2022/04/13 04:46:55;;;;;;;0.10;0.10;;;;;;;11.99;55.00;100662.66;5047233;28;20044;-66
2022/04/13 04:49:21;;;;;;;0.10;0.10;;;;;;;12.02;55.09;100659.22;5014796;28;20045;-65
2022/04/13 04:51:46;;;;;;;0.10;0.10;;;;;;;12.09;55.03;100658.56;5047107;28;20035;-66
2022/04/13 04:54:12;;;;;;;0.05;0.05;;;;;;;12.05;55.28;100663.13;5030234;28;20068;-65
2022/04/13 04:56:38;;;;;;;0.52;0.52;;;;;;;12.01;54.86;100656.91;5042403;28;20384;-66
2022/04/13 04:59:03;;;;;;;0.10;0.10;;;;;;;12.01;55.60;100659.59;5050302;28;20036;-66
2022/04/13 05:01:29;;;;;;;0.30;0.30;;;;;;;12.02;55.17;100667.31;5035889;28;20469;-66
2022/04/13 05:03:54;;;;;;;0.10;0.10;;;;;;;11.86;56.20;100661.31;5042781;28;20040;-66
2022/04/13 05:06:22;;;;;;;0.10;0.10;;;;;;;11.99;55.89;100662.66;5048970;28;20037;-66
2022/04/13 05:08:51;;;;;;;0.20;0.20;;;;;;;11.94;56.11;100667.59;5049491;28;20041;-66
2022/04/13 05:11:17;;;;;;;0.22;0.22;;;;;;;11.97;55.45;100667.66;5041674;28;20041;-65
2022/04/13 05:13:45;;;;;;;0.15;0.15;;;;;;;12.02;55.92;100663.88;5050333;28;20024;-65
2022/04/13 05:16:16;;;;;;;2.83;0.30;;;;;;;12.21;54.76;100678.03;5050869;28;20106;-65
2022/04/13 05:18:42;;;;;;;0.20;0.20;;;;;;;12.13;55.34;100680.97;5029540;28;20029;-66
2022/04/13 05:21:08;;;;;;;0.10;0.10;;;;;;;12.07;55.25;100682.44;5048888;28;20483;-65
2022/04/13 05:23:35;;;;;;;0.43;0.43;;;;;;;12.03;55.46;100673.50;5049696;28;20033;-66
2022/04/13 05:26:00;;;;;;;0.10;0.10;;;;;;;12.14;55.65;100686.00;5050694;28;20040;-66
2022/04/13 05:28:25;;;;;;;0.10;0.10;;;;;;;12.18;55.32;100692.25;5028075;28;20484;-66
2022/04/13 05:30:51;;;;;;;0.40;0.40;;;;;;;12.08;56.19;100687.47;5047039;28;20068;-66
2022/04/13 05:33:16;;;;;;;0.10;0.10;;;;;;;12.22;55.71;100684.97;5047465;28;20467;-65
2022/04/13 05:35:42;;;;;;;0.17;0.17;;;;;;;12.23;55.16;100691.16;5034634;28;20049;-66
2022/04/13 05:38:07;;;;;;;0.10;0.10;;;;;;;12.13;56.31;100687.16;5028824;28;20045;-66
2022/04/13 05:40:33;;;;;;;0.35;0.35;;;;;;;12.25;55.19;100689.63;5032354;28;20126;-66
2022/04/13 05:42:58;;;;;;;0.10;0.10;;;;;;;12.21;55.39;100688.84;5046024;28;20045;-66
2022/04/13 05:45:24;;;;;;;0.10;0.10;;;;;;;12.24;56.24;100706.19;5048234;28;20060;-66
2022/04/13 05:47:50;;;;;;;0.10;0.10;;;;;;;12.37;55.19;100705.63;5029674;28;20434;-66
2022/04/13 05:50:16;;;;;;;0.10;0.10;;;;;;;12.32;55.47;100705.94;5035971;28;20033;-66
2022/04/13 05:52:43;;;;;;;1.30;0.65;;;;;;;12.35;55.54;100707.16;5032761;28;20041;-66
2022/04/13 05:55:10;;;;;;;0.10;0.10;;;;;;;12.31;55.81;100709.78;5034724;28;20502;-66
2022/04/13 05:57:35;;;;;;;1.00;0.47;;;;;;;12.46;55.38;100705.38;5038200;28;20028;-65
2022/04/13 06:00:02;;;;;;;0.10;0.10;;;;;;;12.49;55.86;100710.81;5039891;28;20163;-66
2022/04/13 06:02:30;;;;;;;0.10;0.10;;;;;;;12.49;56.00;100713.50;5069968;28;20532;-65
2022/04/13 06:04:55;;;;;;;0.10;0.10;;;;;;;12.53;55.60;100708.94;5054610;28;20037;-66
2022/04/13 06:07:21;;;;;;;0.20;0.20;;;;;;;12.62;55.51;100709.44;5033225;28;20033;-66
2022/04/13 06:09:46;;;;;;;0.35;0.32;;;;;;;12.72;55.08;100712.66;5045475;28;20041;-66
2022/04/13 06:12:12;;;;;;;0.20;0.20;;;;;;;12.60;54.71;100713.66;5049926;28;20037;-66
2022/04/13 06:14:37;;;;;;;0.10;0.10;;;;;;;12.61;55.48;100713.28;5042494;28;20039;-66
2022/04/13 06:17:03;;;;;;;0.08;0.08;;;;;;;12.55;56.41;100714.75;5029574;28;20047;-66
2022/04/13 06:19:29;;;;;;;0.10;0.10;;;;;;;12.61;55.59;100726.81;5037733;28;20119;-66
2022/04/13 06:21:54;;;;;;;0.20;0.10;;;;;;;12.61;56.04;100716.00;5037369;28;20447;-66
2022/04/13 06:24:20;;;;;;;0.40;0.40;;;;;;;12.67;55.39;100717.22;5029642;28;20067;-66
2022/04/13 06:26:45;;;;;;;0.10;0.10;;;;;;;12.79;54.52;100726.25;5011547;28;20022;-65
2022/04/13 06:29:11;;;;;;;0.10;0.10;;;;;;;12.75;55.21;100730.81;5031840;28;20522;-66
2022/04/13 06:31:57;;;;;;;0.77;0.77;;;;;;;12.68;56.22;100729.59;5022150;28;20024;-66
2022/04/13 06:34:23;;;;;;;0.15;0.15;;;;;;;12.85;55.02;100730.97;4932817;28;20050;-65
2022/04/13 06:36:48;;;;;;;0.22;0.22;;;;;;;12.86;54.83;100740.63;4954365;28;20047;-66
2022/04/13 06:39:14;;;;;;;0.10;0.10;;;;;;;12.81;55.61;100737.47;4944903;28;20507;-65
2022/04/13 06:41:39;;;;;;;0.15;0.15;;;;;;;12.84;55.22;100740.22;4934788;28;20133;-66
2022/04/13 06:44:06;;;;;;;0.35;0.35;;;;;;;12.92;54.99;100749.97;4952669;28;20352;-66
2022/04/13 06:46:36;;;;;;;0.47;0.47;;;;;;;13.02;55.04;100751.25;4926474;28;20039;-65
2022/04/13 06:49:02;;;;;;;0.20;0.20;;;;;;;13.21;54.30;100761.91;4932411;28;20093;-65
2022/04/13 06:51:28;;;;;;;0.20;0.20;;;;;;;13.07;54.90;100748.22;4928681;28;20047;-65
2022/04/13 06:53:53;;;;;;;0.10;0.10;;;;;;;13.14;54.35;100751.78;4947131;28;20506;-65
2022/04/13 06:56:19;;;;;;;0.10;0.10;;;;;;;13.24;54.96;100756.53;4940561;28;20039;-66
2022/04/13 06:58:45;;;;;;;0.40;0.40;;;;;;;13.61;53.31;100755.78;4952257;28;20055;-65
2022/04/13 07:01:11;;;;;;;0.00;0.00;;;;;;;13.59;54.03;100765.03;4946499;28;20125;-65
2022/04/13 07:03:36;;;;;;;0.20;0.20;;;;;;;13.82;53.52;100769.50;4942969;28;20110;-65
2022/04/13 07:06:02;;;;;;;0.00;0.00;;;;;;;13.88;52.09;100763.34;4942487;28;20240;-65
2022/04/13 07:08:27;;;;;;;0.20;0.20;;;;;;;14.00;52.25;100763.09;4945654;28;20077;-66
2022/04/13 07:10:53;;;;;;;0.00;0.00;;;;;;;13.93;51.89;100763.03;4967789;28;20045;-65
2022/04/13 07:13:19;;;;;;;0.20;0.20;;;;;;;13.93;51.49;100760.31;5034956;28;20025;-66
2022/04/13 07:15:44;;;;;;;0.10;0.10;;;;;;;14.02;51.85;100768.91;5032110;28;20037;-66
2022/04/13 07:18:10;;;;;;;0.10;0.10;;;;;;;13.94;52.27;100771.91;5028204;28;20029;-66
2022/04/13 07:20:36;;;;;;;0.10;0.10;;;;;;;14.02;52.32;100773.53;5043105;28;20037;-66
2022/04/13 07:23:01;;;;;;;1.10;1.05;;;;;;;14.09;52.19;100774.38;5023538;28;20476;-65
2022/04/13 07:25:26;;;;;;;0.15;0.15;;;;;;;14.19;52.52;100770.97;5029488;28;20036;-64
2022/04/13 07:27:52;;;;;;;0.08;0.08;;;;;;;14.18;52.88;100768.63;5029288;28;20037;-65
2022/04/13 07:30:18;;;;;;;0.75;0.75;;;;;;;14.24;52.20;100767.13;5036074;28;20032;-65
2022/04/13 07:32:45;;;;;;;0.28;0.28;;;;;;;14.51;51.92;100765.81;5020688;28;20043;-65
2022/04/13 07:35:11;;;;;;;0.40;0.30;;;;;;;14.50;51.25;100768.91;5023737;28;20041;-65
2022/04/13 07:37:39;;;;;;;0.00;0.00;;;;;;;14.31;51.88;100769.91;5022080;28;20490;-64
2022/04/13 07:40:11;;;;;;;0.50;0.50;;;;;;;14.57;51.41;100768.94;5032984;28;20045;-66
2022/04/13 07:42:37;;;;;;;0.65;0.65;;;;;;;14.61;51.29;100769.72;5026828;28;20033;-64
2022/04/13 07:45:04;;;;;;;0.30;0.30;;;;;;;14.84;50.84;100775.66;5028468;28;20531;-65
2022/04/13 07:47:31;;;;;;;0.40;0.28;;;;;;;14.84;51.62;100776.44;5031514;28;20029;-68
2022/04/13 07:50:00;;;;;;;0.10;0.10;;;;;;;15.07;50.74;100779.66;5002925;28;20311;-66
2022/04/13 07:52:26;;;;;;;0.20;0.20;;;;;;;15.21;50.54;100776.97;4948564;28;20422;-65
2022/04/13 07:54:51;;;;;;;0.00;0.00;;;;;;;15.35;50.28;100773.53;5022923;28;20168;-65
2022/04/13 07:57:17;;;;;;;0.10;0.10;;;;;;;15.54;50.69;100765.09;5038657;28;20380;-66
2022/04/13 07:59:43;;;;;;;0.05;0.05;;;;;;;15.70;50.00;100772.88;5041318;28;20112;-65
2022/04/13 08:02:09;;;;;;;0.10;0.10;;;;;;;15.82;49.98;100772.47;5027325;28;20040;-66
2022/04/13 08:04:35;;;;;;;0.35;0.35;;;;;;;15.92;50.42;100780.66;5024729;28;20046;-65
2022/04/13 08:07:01;;;;;;;0.30;0.30;;;;;;;16.20;49.00;100785.31;5027784;28;20041;-65
2022/04/13 08:09:26;;;;;;;0.20;0.20;;;;;;;16.22;48.67;100783.75;5042160;28;20380;-65
2022/04/13 08:11:52;;;;;;;0.10;0.10;;;;;;;16.39;49.19;100789.56;5044909;28;20212;-65
2022/04/13 08:14:22;;;;;;;0.22;0.22;;;;;;;16.39;49.36;100781.41;5052246;28;20436;-65
2022/04/13 08:16:48;;;;;;;0.00;0.00;;;;;;;16.63;48.96;100786.03;5066679;28;20041;-65
2022/04/13 08:19:13;;;;;;;0.00;0.00;;;;;;;16.56;49.30;100789.56;5065456;28;20115;-67
2022/04/13 08:21:39;;;;;;;0.20;0.20;;;;;;;16.51;49.50;100802.78;5027839;28;20423;-65
2022/04/13 08:24:05;;;;;;;0.10;0.10;;;;;;;16.72;48.65;100800.03;5026490;28;20087;-66
2022/04/13 08:26:31;;;;;;;0.10;0.10;;;;;;;16.87;47.76;100798.81;5026485;28;20120;-66
2022/04/13 08:28:56;;;;;;;0.15;0.15;;;;;;;16.82;48.50;100804.66;5025407;28;20123;-66
2022/04/13 08:31:22;;;;;;;0.38;0.38;;;;;;;16.81;48.63;100814.75;5025873;28;20407;-66
2022/04/13 08:33:47;;;;;;;0.52;0.45;;;;;;;17.00;48.43;100808.09;5026696;28;20449;-66
2022/04/13 08:36:13;;;;;;;0.52;0.22;;;;;;;17.22;47.77;100801.41;5025543;28;20714;-65
2022/04/13 08:38:38;;;;;;;0.00;0.00;;;;;;;17.21;48.58;100807.25;5045537;28;20033;-66
2022/04/13 08:41:13;;;;;;;0.30;0.25;;;;;;;17.31;48.14;100809.13;5046347;28;20373;-66
2022/04/13 08:43:48;;;;;;;0.10;0.10;;;;;;;17.37;49.16;100802.88;5042320;28;20079;-66
2022/04/13 08:46:24;;;;;;;0.75;0.10;;;;;;;17.51;47.82;100811.03;5046295;28;20039;-65
2022/04/13 08:48:52;;;;;;;0.00;0.00;;;;;;;17.64;47.43;100803.16;5044604;28;20171;-68
2022/04/13 08:51:21;;;;;;;0.30;0.30;;;;;;;17.64;47.31;100803.94;5037334;28;20400;-65
2022/04/13 08:53:54;;;;;;;0.00;0.00;;;;;;;17.85;47.69;100809.25;5025553;28;20374;-65
2022/04/13 08:56:20;;;;;;;0.10;0.05;;;;;;;18.02;48.89;100810.31;5008586;28;20033;-66
2022/04/13 08:59:04;;;;;;;0.00;0.00;;;;;;;18.34;47.54;100820.94;5025125;28;20460;-65
2022/04/13 09:01:36;;;;;;;0.10;0.10;;;;;;;18.41;46.94;100829.03;5031006;28;20045;-66
2022/04/13 09:04:07;;;;;;;0.30;0.22;;;;;;;18.49;47.21;100817.72;5025163;28;20111;-66
2022/04/13 09:06:33;;;;;;;0.63;0.63;;;;;;;18.43;46.68;100826.72;5032461;28;20041;-66
2022/04/13 09:09:05;;;;;;;0.00;0.00;;;;;;;18.64;46.89;100829.28;5045158;28;20526;-66
2022/04/13 09:11:32;;;;;;;0.17;0.17;;;;;;;18.63;45.97;100835.91;5044916;28;20037;-67
2022/04/13 09:13:58;;;;;;;0.00;0.00;;;;;;;18.55;46.83;100837.13;5041869;28;20491;-66
2022/04/13 09:16:24;;;;;;;0.20;0.20;;;;;;;18.46;47.55;100834.13;5025206;28;20079;-65
2022/04/13 09:18:50;;;;;;;0.35;0.20;;;;;;;18.67;47.06;100839.38;5022842;28;20388;-65
2022/04/13 09:21:20;;;;;;;0.17;0.10;;;;;;;18.61;47.87;100832.78;5030640;28;20122;-66
2022/04/13 09:23:46;;;;;;;0.00;0.00;;;;;;;18.70;47.66;100833.09;5044899;28;20103;-65
2022/04/13 09:26:13;;;;;;;0.20;0.20;;;;;;;18.89;46.80;100838.75;5044627;28;20427;-66
2022/04/13 09:28:39;;;;;;;0.30;0.30;;;;;;;18.97;47.75;100846.88;5041311;28;20065;-65
2022/04/13 09:31:05;;;;;;;0.00;0.00;;;;;;;19.12;47.38;100854.50;5025457;28;20064;-69
2022/04/13 09:33:31;;;;;;;0.05;0.05;;;;;;;19.42;46.06;100846.34;5025056;28;20025;-66
2022/04/13 09:35:57;;;;;;;0.00;0.00;;;;;;;19.37;46.74;100855.00;5025585;28;20467;-65
2022/04/13 09:38:24;;;;;;;0.08;0.08;;;;;;;19.65;48.04;100854.63;5025201;28;20033;-65
2022/04/13 09:40:53;;;;;;;0.00;0.00;;;;;;;19.91;47.12;100850.38;5024140;28;20576;-66
2022/04/13 09:43:21;;;;;;;0.20;0.20;;;;;;;20.10;46.43;100854.38;5025278;28;20056;-65
2022/04/13 09:45:49;;;;;;;0.40;0.40;;;;;;;20.19;46.19;100855.41;5041538;28;20028;-65
2022/04/13 09:48:20;;;;;;;0.00;0.00;;;;;;;20.35;45.01;100847.34;5046758;28;20033;-66
2022/04/13 09:50:48;;;;;;;0.35;0.30;;;;;;;20.32;45.91;100847.41;5058242;28;20159;-65
2022/04/13 09:53:15;;;;;;;0.55;0.20;;;;;;;20.18;45.61;100845.69;5064153;28;20395;-66
2022/04/13 09:55:48;;;;;;;0.30;0.30;;;;;;;20.30;45.61;100839.63;5056157;28;20438;-67
2022/04/13 09:58:17;;;;;;;0.03;0.03;;;;;;;20.14;46.27;100838.69;5044788;28;20039;-66
2022/04/13 10:00:45;;;;;;;0.00;0.00;;;;;;;19.92;46.33;100851.16;5035307;28;20615;-66
2022/04/13 10:03:15;;;;;;;0.17;0.17;;;;;;;20.13;45.98;100845.34;5060372;28;20044;-66
2022/04/13 10:05:43;;;;;;;0.00;0.00;;;;;;;20.18;45.72;100844.88;5064794;28;20051;-66
2022/04/13 10:08:11;;;;;;;0.47;0.32;;;;;;;20.18;46.69;100851.16;5063650;28;20040;-65
2022/04/13 10:10:41;;;;;;;0.05;0.05;;;;;;;20.25;46.45;100855.72;5053289;28;20396;-65
2022/04/13 10:13:06;;;;;;;0.10;0.10;;;;;;;20.40;46.78;100846.09;5044136;28;20047;-66
2022/04/13 10:15:32;;;;;;;0.08;0.08;;;;;;;20.75;45.48;100842.72;5044384;28;20029;-66
2022/04/13 10:17:59;;;;;;;0.13;0.13;;;;;;;20.78;46.71;100850.13;5038829;28;20043;-66
2022/04/13 10:20:44;;;;;;;0.08;0.08;;;;;;;20.69;46.53;100842.44;5043553;28;20123;-66
2022/04/13 10:23:10;;;;;;;0.20;0.20;;;;;;;21.06;45.36;100846.88;5044156;28;20045;-66
2022/04/13 10:25:36;;;;;;;0.00;0.00;;;;;;;20.87;45.26;100842.13;5044419;28;20037;-66
2022/04/13 10:28:02;;;;;;;0.20;0.20;;;;;;;21.02;45.79;100846.16;5029663;28;20041;-66
2022/04/13 10:30:31;;;;;;;0.17;0.17;;;;;;;20.90;45.32;100859.69;5023908;28;20049;-66
2022/04/13 10:33:13;;;;;;;0.60;0.47;;;;;;;20.77;46.03;100856.78;5029605;28;20691;-65
2022/04/13 10:35:43;;;;;;;0.00;0.00;;;;;;;20.80;46.72;100855.16;5034295;28;20106;-65
2022/04/13 10:38:10;;;;;;;0.07;0.07;;;;;;;20.95;47.51;100851.75;5022276;28;20039;-66
2022/04/13 10:40:39;;;;;;;0.20;0.20;;;;;;;21.10;46.78;100857.78;5047359;28;20097;-65
2022/04/13 10:43:07;;;;;;;0.45;0.17;;;;;;;21.22;45.96;100855.16;5063792;28;20613;-65
2022/04/13 10:45:35;;;;;;;0.17;0.17;;;;;;;21.38;46.65;100844.28;5041241;28;20041;-67
2022/04/13 10:48:08;;;;;;;0.20;0.20;;;;;;;21.51;46.23;100849.88;5043366;28;20127;-66
2022/04/13 10:50:36;;;;;;;0.10;0.00;;;;;;;21.95;46.95;100856.78;5040653;28;20033;-65
2022/04/13 10:53:38;;;;;;;0.38;0.38;;;;;;;21.69;46.38;100855.75;5043179;28;20029;-67
2022/04/13 10:56:05;;;;;;;0.00;0.00;;;;;;;21.47;46.41;100847.19;5043724;28;20104;-65
2022/04/13 10:59:07;;;;;;;0.10;0.10;;;;;;;22.09;45.91;100859.16;5031596;28;20037;-66
2022/04/13 11:01:44;;;;;;;;;;;;;;;21.65;45.59;100863.28;5044573;28;20470;-66
2022/04/13 11:04:11;;;;;;;0.13;0.13;;;;;;;21.65;47.23;100860.53;5047614;28;19928;-66
2022/04/13 11:06:39;;;;;;;0.03;0.03;;;;;;;21.58;46.11;100859.91;5037347;28;20638;-66
2022/04/13 11:09:10;;;;;;;0.90;0.30;;;;;;;21.73;45.49;100872.91;5027938;28;20402;-66
2022/04/13 11:11:37;;;;;;;0.13;0.13;;;;;;;21.84;45.42;100864.44;5027688;28;20041;-66
2022/04/13 11:14:23;;;;;;;0.28;0.28;;;;;;;21.75;46.72;100865.03;5027199;28;20112;-66
2022/04/13 11:17:13;;;;;;;0.03;0.03;;;;;;;21.76;45.91;100865.78;5027171;28;20207;-66
2022/04/13 11:19:40;;;;;;;0.30;0.30;;;;;;;21.76;45.91;100871.25;5037574;28;20072;-66
2022/04/13 11:22:05;;;;;;;0.65;0.65;;;;;;;22.10;46.42;100864.25;5047237;28;20557;-66
2022/04/13 11:24:42;;;;;;;0.20;0.10;;;;;;;22.57;45.23;100881.13;5031842;28;20056;-68